Beamsville, Canada
Current Conditions -  °F | °C
As of 7:00 PM on Friday 28 Nov 2014 (Local Time) from CYSN Reporting Station
Overcast Overcast  
Wind Chill: 15°   Ceiling: 11000
Heat Index: 23°   Visibility: 15mi
Dew Point: 14°   Wind: 7mph
Humidity: 68%   Direction: 240°WSW
Pressure: 30.23"   Gusts: NA
Location:  43.16°N, 79.48°W
Report Text: CYSN 290000Z 24006KT 15SM OVC110 M05/M10 A3023 RMK AC8 SLP243
Loading
Personal Weather Stations






























Interactive Weather Map New forecast layout! Learn more

10-Day Weather Forecast

Advertisements
Track Severe Weather on mobile